AEE2KR LGKR-LYBE
Flight info
| Callsign | AEE2KR |
|---|---|
| Flight time | 0h 54m |
| Altitude | 35000 |
| Route | NIKRO M127 OVVER DCT TRN DCT ALELU DCT ELGEB |
| Aircraft | A320/M-SDE3FGHIRWY/LB1 |
Departure
| Time | 2026-04-30 10:00 |
|---|---|
| Airport | Corfu Ioannis Kapodistrias International Airport (LGKR) |
Arrival
| Time | 2026-04-30 10:54 |
|---|---|
| Airport | Belgrade Nikola Tesla Airport (LYBE) |
| Time | Latitude | Longitude | Altitude | Speed | Heading |
|---|---|---|---|---|---|
| 2026-04-30 09:45 | 39.60879 | 19.91304 | 18 ft | 0 kts | 80° |
| 2026-04-30 09:52 | 39.60879 | 19.91303 | 18 ft | 1 kts | 80° |
| 2026-04-30 09:53 | 39.60875 | 19.91273 | 18 ft | 4 kts | 83° |
| 2026-04-30 09:53 | 39.60872 | 19.91238 | 20 ft | 4 kts | 85° |
| 2026-04-30 09:53 | 39.60870 | 19.91204 | 22 ft | 4 kts | 78° |
| 2026-04-30 09:53 | 39.60862 | 19.91177 | 20 ft | 4 kts | 22° |
| 2026-04-30 09:54 | 39.60857 | 19.91174 | 19 ft | 0 kts | 349° |
| 2026-04-30 09:56 | 39.60866 | 19.91172 | 20 ft | 4 kts | 350° |
| 2026-04-30 09:56 | 39.60913 | 19.91161 | 21 ft | 10 kts | 349° |
| 2026-04-30 09:57 | 39.60996 | 19.91139 | 19 ft | 15 kts | 348° |
| 2026-04-30 09:57 | 39.61113 | 19.91107 | 19 ft | 18 kts | 348° |
| 2026-04-30 09:57 | 39.61161 | 19.91095 | 19 ft | 0 kts | 348° |
| 2026-04-30 09:57 | 39.61176 | 19.91091 | 19 ft | 6 kts | 348° |
| 2026-04-30 09:58 | 39.61216 | 19.91042 | 20 ft | 8 kts | 294° |
| 2026-04-30 09:58 | 39.61222 | 19.90975 | 21 ft | 8 kts | 263° |
| 2026-04-30 09:58 | 39.61182 | 19.90958 | 21 ft | 7 kts | 169° |
| 2026-04-30 09:58 | 39.61147 | 19.90967 | 21 ft | 0 kts | 168° |
| 2026-04-30 09:59 | 39.60797 | 19.91058 | 20 ft | 86 kts | 168° |
| 2026-04-30 09:59 | 39.58989 | 19.91527 | 417 ft | 148 kts | 168° |
| 2026-04-30 10:00 | 39.57387 | 19.93098 | 1454 ft | 159 kts | 112° |
| 2026-04-30 10:00 | 39.56941 | 19.94429 | 1929 ft | 167 kts | 128° |
| 2026-04-30 10:01 | 39.55736 | 19.95831 | 2276 ft | 187 kts | 144° |
| 2026-04-30 10:01 | 39.54670 | 19.96906 | 2444 ft | 205 kts | 144° |
| 2026-04-30 10:01 | 39.53487 | 19.98092 | 2704 ft | 230 kts | 144° |
| 2026-04-30 10:02 | 39.50908 | 20.00990 | 3817 ft | 266 kts | 124° |
| 2026-04-30 10:02 | 39.50305 | 20.03300 | 4551 ft | 278 kts | 93° |
| 2026-04-30 10:02 | 39.50682 | 20.05757 | 5354 ft | 284 kts | 61° |
| 2026-04-30 10:02 | 39.51996 | 20.07638 | 6151 ft | 286 kts | 28° |
| 2026-04-30 10:03 | 39.53866 | 20.08487 | 6935 ft | 287 kts | 9° |
| 2026-04-30 10:03 | 39.55823 | 20.09032 | 7758 ft | 290 kts | 8° |
| 2026-04-30 10:03 | 39.57814 | 20.09566 | 8585 ft | 294 kts | 8° |
| 2026-04-30 10:03 | 39.59831 | 20.10109 | 9389 ft | 298 kts | 9° |
| 2026-04-30 10:04 | 39.61872 | 20.10669 | 10157 ft | 302 kts | 9° |
| 2026-04-30 10:04 | 39.63526 | 20.11110 | 10453 ft | 317 kts | 5° |
| 2026-04-30 10:04 | 39.64587 | 20.11217 | 10530 ft | 324 kts | 355° |
| 2026-04-30 10:04 | 39.66887 | 20.11031 | 10692 ft | 346 kts | 352° |
| 2026-04-30 10:05 | 39.69371 | 20.10799 | 10831 ft | 368 kts | 352° |
| 2026-04-30 10:05 | 39.72006 | 20.10557 | 10957 ft | 389 kts | 353° |
| 2026-04-30 10:05 | 39.74741 | 20.10312 | 11373 ft | 398 kts | 353° |
| 2026-04-30 10:05 | 39.77529 | 20.10066 | 11908 ft | 402 kts | 352° |
| 2026-04-30 10:06 | 39.80328 | 20.09822 | 12504 ft | 405 kts | 352° |
| 2026-04-30 10:06 | 39.83157 | 20.09575 | 13168 ft | 408 kts | 352° |
| 2026-04-30 10:06 | 39.85962 | 20.09329 | 13825 ft | 411 kts | 351° |
| 2026-04-30 10:06 | 39.88828 | 20.09076 | 14432 ft | 413 kts | 351° |
| 2026-04-30 10:07 | 39.91701 | 20.08823 | 15012 ft | 416 kts | 351° |
| 2026-04-30 10:07 | 39.94600 | 20.08567 | 15573 ft | 418 kts | 351° |
| 2026-04-30 10:07 | 39.97511 | 20.08309 | 16122 ft | 421 kts | 351° |
| 2026-04-30 10:07 | 40.00446 | 20.08047 | 16677 ft | 424 kts | 351° |
| 2026-04-30 10:08 | 40.03408 | 20.07780 | 17202 ft | 428 kts | 351° |
| 2026-04-30 10:08 | 40.06387 | 20.07510 | 17684 ft | 432 kts | 351° |
| 2026-04-30 10:08 | 40.09398 | 20.07239 | 18193 ft | 433 kts | 351° |
| 2026-04-30 10:08 | 40.12405 | 20.06970 | 18565 ft | 434 kts | 351° |
| 2026-04-30 10:09 | 40.15389 | 20.06700 | 18914 ft | 436 kts | 351° |
| 2026-04-30 10:09 | 40.18426 | 20.06422 | 19336 ft | 438 kts | 351° |
| 2026-04-30 10:09 | 40.21481 | 20.06143 | 19744 ft | 441 kts | 351° |
| 2026-04-30 10:09 | 40.24548 | 20.05868 | 20131 ft | 442 kts | 351° |
| 2026-04-30 10:10 | 40.27630 | 20.05595 | 20538 ft | 444 kts | 351° |
| 2026-04-30 10:10 | 40.30723 | 20.05318 | 20880 ft | 447 kts | 351° |
| 2026-04-30 10:10 | 40.33836 | 20.05037 | 21274 ft | 449 kts | 351° |
| 2026-04-30 10:10 | 40.36961 | 20.04755 | 21671 ft | 450 kts | 350° |
| 2026-04-30 10:11 | 40.40050 | 20.04477 | 22001 ft | 452 kts | 350° |
| 2026-04-30 10:11 | 40.43199 | 20.04195 | 22336 ft | 454 kts | 350° |
| 2026-04-30 10:11 | 40.46360 | 20.03910 | 22616 ft | 457 kts | 350° |
| 2026-04-30 10:11 | 40.49535 | 20.03622 | 22885 ft | 459 kts | 350° |
| 2026-04-30 10:12 | 40.52745 | 20.03332 | 23194 ft | 460 kts | 350° |
| 2026-04-30 10:12 | 40.55944 | 20.03042 | 23554 ft | 461 kts | 350° |
| 2026-04-30 10:12 | 40.59134 | 20.02755 | 23929 ft | 459 kts | 350° |
| 2026-04-30 10:12 | 40.62270 | 20.02473 | 24355 ft | 457 kts | 350° |
| 2026-04-30 10:13 | 40.65440 | 20.02186 | 24783 ft | 455 kts | 350° |
| 2026-04-30 10:13 | 40.68599 | 20.01892 | 25190 ft | 454 kts | 350° |
| 2026-04-30 10:13 | 40.71750 | 20.01597 | 25637 ft | 452 kts | 349° |
| 2026-04-30 10:13 | 40.74886 | 20.01305 | 26091 ft | 451 kts | 349° |
| 2026-04-30 10:14 | 40.78009 | 20.01016 | 26565 ft | 449 kts | 349° |
| 2026-04-30 10:14 | 40.81122 | 20.00733 | 27039 ft | 447 kts | 349° |
| 2026-04-30 10:14 | 40.87261 | 20.00177 | 27957 ft | 444 kts | 349° |
| 2026-04-30 10:15 | 40.90346 | 19.99892 | 28404 ft | 444 kts | 349° |
| 2026-04-30 10:15 | 40.93420 | 19.99610 | 28889 ft | 442 kts | 349° |
| 2026-04-30 10:15 | 40.96483 | 19.99332 | 29390 ft | 440 kts | 349° |
| 2026-04-30 10:15 | 40.99531 | 19.99053 | 29885 ft | 438 kts | 349° |
| 2026-04-30 10:16 | 41.02571 | 19.98772 | 30363 ft | 436 kts | 349° |
| 2026-04-30 10:16 | 41.05602 | 19.98488 | 30792 ft | 434 kts | 349° |
| 2026-04-30 10:16 | 41.08575 | 19.98209 | 31210 ft | 433 kts | 349° |
| 2026-04-30 10:17 | 41.14556 | 19.97655 | 32104 ft | 429 kts | 349° |
| 2026-04-30 10:17 | 41.20488 | 19.97112 | 33065 ft | 424 kts | 348° |
| 2026-04-30 10:17 | 41.23422 | 19.96842 | 33561 ft | 421 kts | 348° |
| 2026-04-30 10:18 | 41.26341 | 19.96572 | 34080 ft | 419 kts | 348° |
| 2026-04-30 10:18 | 41.29242 | 19.96300 | 34486 ft | 417 kts | 348° |
| 2026-04-30 10:18 | 41.32097 | 19.96028 | 34769 ft | 417 kts | 348° |
| 2026-04-30 10:19 | 41.37916 | 19.95476 | 35077 ft | 422 kts | 348° |
| 2026-04-30 10:19 | 41.43875 | 19.94917 | 35107 ft | 435 kts | 348° |
| 2026-04-30 10:20 | 41.49953 | 19.94358 | 35091 ft | 439 kts | 348° |
| 2026-04-30 10:20 | 41.59053 | 19.93517 | 35108 ft | 438 kts | 348° |
| 2026-04-30 10:21 | 41.65143 | 19.92940 | 35106 ft | 439 kts | 348° |
| 2026-04-30 10:21 | 41.71235 | 19.92368 | 35147 ft | 439 kts | 348° |
| 2026-04-30 10:22 | 41.77330 | 19.91797 | 35157 ft | 439 kts | 348° |
| 2026-04-30 10:22 | 41.82393 | 19.91310 | 35160 ft | 438 kts | 348° |
| 2026-04-30 10:23 | 41.89464 | 19.90636 | 35193 ft | 438 kts | 348° |
| 2026-04-30 10:23 | 41.94563 | 19.90154 | 35202 ft | 438 kts | 348° |
| 2026-04-30 10:24 | 42.00598 | 19.89591 | 35208 ft | 438 kts | 348° |
| 2026-04-30 10:24 | 42.06664 | 19.89016 | 35208 ft | 437 kts | 348° |
| 2026-04-30 10:25 | 42.12723 | 19.88441 | 35210 ft | 435 kts | 347° |
| 2026-04-30 10:25 | 42.18770 | 19.87869 | 35226 ft | 435 kts | 347° |
| 2026-04-30 10:26 | 42.24797 | 19.87291 | 35244 ft | 434 kts | 347° |
| 2026-04-30 10:26 | 42.30832 | 19.86701 | 35262 ft | 434 kts | 347° |
| 2026-04-30 10:27 | 42.36857 | 19.86120 | 35267 ft | 434 kts | 347° |
| 2026-04-30 10:27 | 42.42937 | 19.86030 | 35269 ft | 447 kts | 358° |
| 2026-04-30 10:28 | 42.49082 | 19.87138 | 35306 ft | 449 kts | 359° |
| 2026-04-30 10:28 | 42.55280 | 19.88337 | 35303 ft | 450 kts | 359° |
| 2026-04-30 10:29 | 42.61449 | 19.89534 | 35288 ft | 449 kts | 359° |
| 2026-04-30 10:29 | 42.67660 | 19.90707 | 35336 ft | 451 kts | 358° |
| 2026-04-30 10:30 | 42.73885 | 19.91883 | 35325 ft | 452 kts | 358° |
| 2026-04-30 10:30 | 42.80113 | 19.93073 | 35323 ft | 452 kts | 358° |
| 2026-04-30 10:31 | 42.86353 | 19.94261 | 35332 ft | 453 kts | 358° |
| 2026-04-30 10:31 | 42.92561 | 19.95448 | 35326 ft | 453 kts | 358° |
| 2026-04-30 10:32 | 42.98819 | 19.96650 | 35327 ft | 455 kts | 358° |
| 2026-04-30 10:32 | 43.05094 | 19.97863 | 35330 ft | 455 kts | 358° |
| 2026-04-30 10:33 | 43.11364 | 19.99075 | 35337 ft | 455 kts | 358° |
| 2026-04-30 10:33 | 43.17643 | 20.00278 | 35342 ft | 455 kts | 358° |
| 2026-04-30 10:34 | 43.23882 | 20.01486 | 35374 ft | 456 kts | 359° |
| 2026-04-30 10:34 | 43.30173 | 20.02711 | 35366 ft | 456 kts | 359° |
| 2026-04-30 10:35 | 43.36465 | 20.03942 | 35357 ft | 457 kts | 359° |
| 2026-04-30 10:35 | 43.42757 | 20.05165 | 35380 ft | 457 kts | 359° |
| 2026-04-30 10:36 | 43.49056 | 20.06388 | 35364 ft | 457 kts | 359° |
| 2026-04-30 10:36 | 43.55318 | 20.07610 | 35355 ft | 457 kts | 359° |
| 2026-04-30 10:37 | 43.58475 | 20.08229 | 35160 ft | 457 kts | 359° |
| 2026-04-30 10:37 | 43.61619 | 20.08848 | 34953 ft | 457 kts | 360° |
| 2026-04-30 10:37 | 43.64765 | 20.09470 | 34716 ft | 457 kts | 359° |
| 2026-04-30 10:37 | 43.67909 | 20.10091 | 34186 ft | 456 kts | 359° |
| 2026-04-30 10:38 | 43.71065 | 20.10709 | 33173 ft | 459 kts | 359° |
| 2026-04-30 10:38 | 43.74231 | 20.11327 | 32296 ft | 460 kts | 359° |
| 2026-04-30 10:38 | 43.77404 | 20.11947 | 31360 ft | 463 kts | 359° |
| 2026-04-30 10:38 | 43.80610 | 20.12574 | 30340 ft | 468 kts | 359° |
| 2026-04-30 10:39 | 43.83856 | 20.13212 | 29190 ft | 471 kts | 359° |
| 2026-04-30 10:39 | 43.87065 | 20.13848 | 28093 ft | 472 kts | 359° |
| 2026-04-30 10:39 | 43.90329 | 20.14498 | 26862 ft | 476 kts | 360° |
| 2026-04-30 10:39 | 43.93624 | 20.15154 | 25596 ft | 480 kts | 0° |
| 2026-04-30 10:40 | 43.96949 | 20.15815 | 24394 ft | 483 kts | 0° |
| 2026-04-30 10:40 | 44.00281 | 20.16477 | 23214 ft | 483 kts | 0° |
| 2026-04-30 10:40 | 44.03577 | 20.17138 | 22317 ft | 474 kts | 1° |
| 2026-04-30 10:40 | 44.06824 | 20.17796 | 21359 ft | 467 kts | 1° |
| 2026-04-30 10:41 | 44.10014 | 20.18596 | 20421 ft | 467 kts | 9° |
| 2026-04-30 10:41 | 44.13016 | 20.20148 | 19635 ft | 466 kts | 20° |
| 2026-04-30 10:41 | 44.15798 | 20.22526 | 18842 ft | 469 kts | 33° |
| 2026-04-30 10:41 | 44.18166 | 20.25538 | 17718 ft | 456 kts | 43° |
| 2026-04-30 10:42 | 44.20277 | 20.28768 | 16500 ft | 441 kts | 45° |
| 2026-04-30 10:42 | 44.22302 | 20.31925 | 15618 ft | 435 kts | 45° |
| 2026-04-30 10:42 | 44.24314 | 20.35082 | 14697 ft | 434 kts | 45° |
| 2026-04-30 10:42 | 44.26297 | 20.38204 | 14043 ft | 425 kts | 45° |
| 2026-04-30 10:43 | 44.28234 | 20.41249 | 13109 ft | 412 kts | 46° |
| 2026-04-30 10:43 | 44.30118 | 20.44204 | 11893 ft | 401 kts | 46° |
| 2026-04-30 10:43 | 44.31913 | 20.47015 | 11430 ft | 372 kts | 46° |
| 2026-04-30 10:43 | 44.33566 | 20.49604 | 11178 ft | 342 kts | 46° |
| 2026-04-30 10:44 | 44.35084 | 20.51977 | 11040 ft | 314 kts | 45° |
| 2026-04-30 10:44 | 44.36631 | 20.53882 | 10769 ft | 292 kts | 29° |
| 2026-04-30 10:44 | 44.38452 | 20.54961 | 10225 ft | 281 kts | 10° |
| 2026-04-30 10:44 | 44.40344 | 20.55264 | 9974 ft | 269 kts | 3° |
| 2026-04-30 10:45 | 44.42252 | 20.55511 | 9521 ft | 275 kts | 4° |
| 2026-04-30 10:45 | 44.44111 | 20.55774 | 9058 ft | 270 kts | 4° |
| 2026-04-30 10:45 | 44.45969 | 20.56043 | 8592 ft | 267 kts | 5° |
| 2026-04-30 10:45 | 44.47808 | 20.56308 | 8142 ft | 264 kts | 5° |
| 2026-04-30 10:46 | 44.49626 | 20.56566 | 7698 ft | 260 kts | 4° |
| 2026-04-30 10:46 | 44.51422 | 20.56820 | 7264 ft | 259 kts | 5° |
| 2026-04-30 10:46 | 44.53205 | 20.57069 | 6824 ft | 256 kts | 5° |
| 2026-04-30 10:46 | 44.54974 | 20.57315 | 6374 ft | 254 kts | 5° |
| 2026-04-30 10:47 | 44.56701 | 20.57556 | 5946 ft | 252 kts | 5° |
| 2026-04-30 10:47 | 44.58437 | 20.57799 | 5524 ft | 249 kts | 5° |
| 2026-04-30 10:47 | 44.60159 | 20.58041 | 5102 ft | 247 kts | 5° |
| 2026-04-30 10:47 | 44.61858 | 20.58279 | 4755 ft | 241 kts | 5° |
| 2026-04-30 10:48 | 44.63454 | 20.58503 | 4696 ft | 220 kts | 5° |
| 2026-04-30 10:48 | 44.64910 | 20.58708 | 4643 ft | 203 kts | 5° |
| 2026-04-30 10:48 | 44.66294 | 20.58901 | 4564 ft | 202 kts | 5° |
| 2026-04-30 10:48 | 44.67695 | 20.59010 | 4482 ft | 201 kts | 354° |
| 2026-04-30 10:49 | 44.69026 | 20.58463 | 4396 ft | 200 kts | 333° |
| 2026-04-30 10:49 | 44.70123 | 20.57187 | 3904 ft | 215 kts | 309° |
| 2026-04-30 10:49 | 44.70964 | 20.55358 | 3394 ft | 227 kts | 306° |
| 2026-04-30 10:49 | 44.71786 | 20.53493 | 3239 ft | 220 kts | 305° |
| 2026-04-30 10:50 | 44.72588 | 20.51691 | 3133 ft | 213 kts | 306° |
| 2026-04-30 10:50 | 44.73345 | 20.49993 | 3087 ft | 196 kts | 306° |
| 2026-04-30 10:50 | 44.74062 | 20.48392 | 2998 ft | 191 kts | 306° |
| 2026-04-30 10:50 | 44.74764 | 20.46820 | 2793 ft | 188 kts | 306° |
| 2026-04-30 10:51 | 44.75424 | 20.45339 | 2586 ft | 174 kts | 306° |
| 2026-04-30 10:51 | 44.76063 | 20.43908 | 2310 ft | 169 kts | 306° |
| 2026-04-30 10:51 | 44.76659 | 20.42570 | 2103 ft | 154 kts | 307° |
| 2026-04-30 10:51 | 44.77197 | 20.41357 | 1914 ft | 140 kts | 308° |
| 2026-04-30 10:52 | 44.77690 | 20.40215 | 1689 ft | 133 kts | 307° |
| 2026-04-30 10:52 | 44.78178 | 20.39131 | 1419 ft | 129 kts | 309° |
| 2026-04-30 10:52 | 44.78665 | 20.38062 | 1248 ft | 130 kts | 308° |
| 2026-04-30 10:52 | 44.79134 | 20.37020 | 1062 ft | 130 kts | 305° |
| 2026-04-30 10:53 | 44.79611 | 20.35939 | 940 ft | 131 kts | 305° |
| 2026-04-30 10:53 | 44.80093 | 20.34830 | 758 ft | 133 kts | 305° |
| 2026-04-30 10:53 | 44.80578 | 20.33734 | 579 ft | 130 kts | 307° |
| 2026-04-30 10:53 | 44.81054 | 20.32680 | 402 ft | 130 kts | 307° |
| 2026-04-30 10:54 | 44.81525 | 20.31631 | 309 ft | 116 kts | 304° |
| 2026-04-30 10:54 | 44.81871 | 20.30853 | 311 ft | 63 kts | 302° |
| 2026-04-30 10:54 | 44.82054 | 20.30440 | 305 ft | 47 kts | 302° |
| 2026-04-30 10:54 | 44.82144 | 20.30213 | 304 ft | 22 kts | 294° |
| 2026-04-30 10:55 | 44.82169 | 20.30004 | 307 ft | 22 kts | 271° |
| 2026-04-30 10:55 | 44.82170 | 20.29816 | 309 ft | 8 kts | 270° |
| 2026-04-30 10:55 | 44.82171 | 20.29788 | 310 ft | 1 kts | 270° |
| 2026-04-30 10:55 | 44.82169 | 20.29753 | 310 ft | 6 kts | 263° |
| 2026-04-30 10:56 | 44.82146 | 20.29689 | 308 ft | 8 kts | 219° |
| 2026-04-30 10:56 | 44.82126 | 20.29670 | 309 ft | 0 kts | 213° |
| 2026-04-30 10:56 | 44.82122 | 20.29667 | 309 ft | 0 kts | 213° |
| 2026-04-30 10:57 | 44.82111 | 20.29653 | 309 ft | 4 kts | 227° |
| 2026-04-30 10:57 | 44.82110 | 20.29600 | 307 ft | 7 kts | 287° |
| 2026-04-30 10:57 | 44.82090 | 20.29520 | 307 ft | 12 kts | 219° |
| 2026-04-30 10:57 | 44.82023 | 20.29460 | 307 ft | 12 kts | 212° |
| 2026-04-30 10:58 | 44.81940 | 20.29387 | 307 ft | 16 kts | 212° |
| 2026-04-30 10:58 | 44.81848 | 20.29306 | 308 ft | 15 kts | 212° |
| 2026-04-30 10:58 | 44.81832 | 20.29262 | 307 ft | 7 kts | 284° |
| 2026-04-30 10:58 | 44.81849 | 20.29218 | 308 ft | 1 kts | 302° |
| 2026-04-30 10:59 | 44.81853 | 20.29208 | 307 ft | 1 kts | 302° |
| 2026-04-30 10:59 | 44.81856 | 20.29202 | 307 ft | 0 kts | 302° |